Time;durP1;ratioP1;P1;durP2;ratioP2;P2;SDS_P1;SDS_P2;PMS_P1;PMS_P2;Temp;Humidity;BMP_temperature;BMP_pressure;BME280_temperature;BME280_humidity;BME280_pressure;Samples;Min_cycle;Max_cycle;Signal;HPM_P1;HPM_P2
2020/12/16 00:02:04;;;;;;;10.60;9.55;;;8.80;99.90;;;;;;5106093;28;20204;-85
2020/12/16 00:04:30;;;;;;;9.70;8.93;;;8.80;99.90;;;;;;5107629;28;20208;-85
2020/12/16 00:06:57;;;;;;;8.93;8.00;;;8.70;99.90;;;;;;5107385;28;20235;-85
2020/12/16 00:41:09;;;;;;;9.90;9.10;;;8.60;99.90;;;;;;4808207;29;20243;-85
2020/12/16 00:53:59;;;;;;;28.20;11.55;;;8.30;99.90;;;;;;4923195;28;20194;-85
2020/12/16 00:59:32;;;;;;;10.25;9.30;;;8.20;99.90;;;;;;4986842;28;20220;-85
2020/12/16 01:01:58;;;;;;;19.52;10.65;;;8.20;99.90;;;;;;5083779;28;20319;-85
2020/12/16 01:04:24;;;;;;;10.50;9.50;;;8.10;99.90;;;;;;5083381;28;20209;-85
2020/12/16 01:06:51;;;;;;;9.82;9.00;;;8.10;99.90;;;;;;5082389;28;20229;-85
2020/12/16 01:09:18;;;;;;;10.85;9.43;;;8.10;99.90;;;;;;5082430;28;20213;-85
2020/12/16 01:11:44;;;;;;;11.23;10.23;;;8.10;99.90;;;;;;5083000;28;20226;-85
2020/12/16 01:14:10;;;;;;;10.75;9.75;;;8.20;99.90;;;;;;5082005;28;20283;-85
2020/12/16 01:19:47;;;;;;;11.95;10.65;;;8.20;99.90;;;;;;5055708;28;20233;-85
2020/12/16 01:22:13;;;;;;;13.45;12.20;;;8.30;99.90;;;;;;5083093;28;20211;-84
2020/12/16 01:24:41;;;;;;;29.13;15.48;;;8.30;99.90;;;;;;5082281;28;20205;-85
2020/12/16 01:27:07;;;;;;;23.55;15.57;;;8.30;99.90;;;;;;5082401;28;20256;-85
2020/12/16 01:29:33;;;;;;;17.98;16.20;;;8.30;99.90;;;;;;5083555;28;20209;-85
2020/12/16 01:31:59;;;;;;;20.33;15.43;;;8.40;99.90;;;;;;5082584;28;20590;-85
2020/12/16 01:34:26;;;;;;;15.68;14.15;;;8.40;99.90;;;;;;5082608;28;20224;-85
2020/12/16 01:36:52;;;;;;;19.38;15.98;;;8.40;99.90;;;;;;5082213;28;20355;-84
2020/12/16 01:39:18;;;;;;;17.27;15.57;;;8.50;99.90;;;;;;5081824;28;20263;-84
2020/12/16 01:42:12;;;;;;;15.32;13.90;;;8.50;99.90;;;;;;5082518;28;20281;-85
2020/12/16 01:45:10;;;;;;;15.60;14.13;;;8.50;99.90;;;;;;5082469;28;20213;-85
2020/12/16 01:47:37;;;;;;;15.02;13.30;;;8.60;99.90;;;;;;5081702;28;20229;-85
2020/12/16 01:50:05;;;;;;;17.35;14.18;;;8.60;99.90;;;;;;5081433;28;20261;-85
2020/12/16 01:52:46;;;;;;;15.85;14.25;;;8.70;99.90;;;;;;5080990;28;20730;-85
2020/12/16 01:55:13;;;;;;;14.40;12.90;;;8.70;99.90;;;;;;5079851;28;20217;-85
2020/12/16 01:57:45;;;;;;;15.80;14.25;;;8.70;99.90;;;;;;5080853;28;20229;-85
2020/12/16 02:00:12;;;;;;;14.55;13.15;;;8.80;99.90;;;;;;5081201;28;20209;-85
2020/12/16 02:02:44;;;;;;;14.10;12.80;;;8.80;99.90;;;;;;5080680;28;20209;-85
2020/12/16 02:05:12;;;;;;;15.90;14.38;;;8.90;99.90;;;;;;5081182;28;20209;-85
2020/12/16 02:07:40;;;;;;;13.77;12.48;;;8.90;99.90;;;;;;5080740;28;20225;-85
2020/12/16 02:10:06;;;;;;;14.38;13.07;;;8.90;99.90;;;;;;5080618;28;20227;-85
2020/12/16 02:12:35;;;;;;;13.80;12.52;;;8.90;99.90;;;;;;5080498;28;20209;-85
2020/12/16 02:15:04;;;;;;;13.85;12.45;;;8.90;99.90;;;;;;5079806;28;20201;-85
2020/12/16 02:17:30;;;;;;;13.50;12.05;;;9.00;99.90;;;;;;5080236;28;20229;-86
2020/12/16 02:19:59;;;;;;;14.20;12.80;;;9.00;99.90;;;;;;5080821;28;20266;-85
2020/12/16 02:22:26;;;;;;;13.60;12.40;;;9.00;99.90;;;;;;5080013;28;20216;-85
2020/12/16 02:25:01;;;;;;;14.48;13.27;;;9.00;99.90;;;;;;5080285;28;20667;-85
2020/12/16 02:27:28;;;;;;;13.35;12.38;;;9.00;99.90;;;;;;5080182;28;20221;-85
2020/12/16 02:29:55;;;;;;;12.55;11.38;;;9.00;99.90;;;;;;5080434;28;20205;-85
2020/12/16 02:32:24;;;;;;;14.55;13.10;;;9.10;99.90;;;;;;5080294;28;20234;-84
2020/12/16 02:34:51;;;;;;;12.70;11.70;;;9.10;99.90;;;;;;5080835;28;20209;-85
2020/12/16 02:37:18;;;;;;;13.93;12.63;;;9.10;99.90;;;;;;5080744;28;20237;-85
2020/12/16 02:39:44;;;;;;;14.00;12.40;;;9.10;99.90;;;;;;5081101;28;20697;-85
2020/12/16 02:42:12;;;;;;;12.75;11.55;;;9.10;99.90;;;;;;5080606;28;20238;-85
2020/12/16 02:45:09;;;;;;;15.10;13.55;;;9.10;99.90;;;;;;5080073;28;20239;-85
2020/12/16 02:47:35;;;;;;;16.65;13.90;;;9.10;99.90;;;;;;5080124;28;20603;-85
2020/12/16 02:50:02;;;;;;;14.90;12.50;;;9.10;99.90;;;;;;5080182;28;20209;-85
2020/12/16 02:52:28;;;;;;;13.73;12.52;;;9.10;99.90;;;;;;5079732;28;20744;-85
2020/12/16 02:54:54;;;;;;;12.82;11.65;;;9.10;99.90;;;;;;5080346;28;20582;-85
2020/12/16 02:57:38;;;;;;;14.52;13.05;;;9.10;99.90;;;;;;5079707;28;20226;-85
2020/12/16 03:00:13;;;;;;;12.95;11.90;;;9.10;99.90;;;;;;5079864;28;20225;-85
2020/12/16 03:02:39;;;;;;;16.05;13.10;;;9.20;99.90;;;;;;5079382;28;20879;-85
2020/12/16 03:05:05;;;;;;;13.75;12.48;;;9.10;99.90;;;;;;5078736;28;20219;-85
2020/12/16 03:07:34;;;;;;;14.00;12.88;;;9.10;99.90;;;;;;5080708;28;20225;-85
2020/12/16 03:10:00;;;;;;;14.70;13.40;;;9.20;99.90;;;;;;5079671;28;20205;-85
2020/12/16 03:12:28;;;;;;;12.63;11.35;;;9.10;99.90;;;;;;5079767;28;20278;-85
2020/12/16 03:14:54;;;;;;;12.38;11.48;;;9.10;99.90;;;;;;5079758;28;20216;-85
2020/12/16 03:17:21;;;;;;;11.98;10.30;;;9.10;99.90;;;;;;5079973;28;20228;-85
2020/12/16 03:19:47;;;;;;;12.30;11.10;;;9.10;99.90;;;;;;5079542;28;20205;-85
2020/12/16 03:22:13;;;;;;;13.48;12.27;;;9.10;99.90;;;;;;5079016;28;20232;-85
2020/12/16 03:24:40;;;;;;;12.45;11.27;;;9.10;99.90;;;;;;5078500;28;20206;-85
2020/12/16 03:27:06;;;;;;;12.20;11.13;;;9.10;99.90;;;;;;5079320;28;20225;-85
2020/12/16 03:29:43;;;;;;;12.65;11.40;;;9.10;99.90;;;;;;5079045;28;20213;-85
2020/12/16 03:32:15;;;;;;;13.02;11.77;;;9.10;99.90;;;;;;5078319;28;20205;-85
2020/12/16 03:34:44;;;;;;;12.15;11.10;;;9.10;99.90;;;;;;5078554;28;20228;-85
2020/12/16 03:37:13;;;;;;;13.18;11.98;;;9.10;99.90;;;;;;5078664;28;20291;-85
2020/12/16 03:39:40;;;;;;;12.63;11.50;;;9.10;99.90;;;;;;5078501;28;20208;-85
2020/12/16 03:42:12;;;;;;;12.80;11.45;;;9.20;99.90;;;;;;5077872;28;20210;-85
2020/12/16 03:44:39;;;;;;;12.90;11.60;;;9.10;99.90;;;;;;5079216;28;20205;-85
2020/12/16 03:47:06;;;;;;;12.60;11.40;;;9.10;99.90;;;;;;5078951;28;20237;-85
2020/12/16 03:49:48;;;;;;;13.15;11.95;;;9.10;99.90;;;;;;5078517;28;20213;-85
2020/12/16 03:52:14;;;;;;;13.93;12.50;;;9.10;99.90;;;;;;5078626;28;20237;-85
2020/12/16 03:54:40;;;;;;;14.35;12.55;;;9.10;99.90;;;;;;5078431;28;20209;-85
2020/12/16 03:57:07;;;;;;;14.32;12.95;;;9.10;99.90;;;;;;5077794;28;20241;-85
2020/12/16 03:59:33;;;;;;;13.73;11.93;;;9.10;99.90;;;;;;5078538;28;20655;-85
2020/12/16 04:02:00;;;;;;;13.70;12.50;;;9.10;99.90;;;;;;5078210;28;20742;-85
2020/12/16 04:04:26;;;;;;;14.05;12.75;;;9.10;99.90;;;;;;5078614;28;20287;-85
2020/12/16 04:07:02;;;;;;;13.15;11.52;;;9.10;99.90;;;;;;5077925;28;20237;-85
2020/12/16 04:09:28;;;;;;;14.05;12.65;;;9.10;99.90;;;;;;5078799;28;20594;-85
2020/12/16 04:11:55;;;;;;;14.00;12.68;;;9.10;99.90;;;;;;5078680;28;20205;-85
2020/12/16 04:14:21;;;;;;;13.25;11.95;;;9.10;99.90;;;;;;5077646;28;20203;-85
2020/12/16 04:16:56;;;;;;;12.38;11.27;;;9.00;99.90;;;;;;5077617;28;20222;-85
2020/12/16 04:19:30;;;;;;;13.25;12.05;;;9.00;99.90;;;;;;5077826;28;20756;-85
2020/12/16 04:21:57;;;;;;;13.95;12.75;;;9.00;99.90;;;;;;5078411;28;20274;-84
2020/12/16 04:24:23;;;;;;;12.38;11.32;;;8.90;99.90;;;;;;5078219;28;20205;-85
2020/12/16 04:26:51;;;;;;;11.05;10.15;;;8.80;99.90;;;;;;5077820;28;20239;-84
2020/12/16 04:29:17;;;;;;;18.10;12.65;;;8.70;99.90;;;;;;5077376;28;20209;-85
2020/12/16 04:31:43;;;;;;;12.95;11.80;;;8.70;99.90;;;;;;5078686;28;20198;-84
2020/12/16 04:34:10;;;;;;;10.90;9.85;;;8.60;99.90;;;;;;5077618;28;20206;-85
2020/12/16 04:36:37;;;;;;;11.15;10.15;;;8.60;99.90;;;;;;5077431;28;20232;-85
2020/12/16 04:39:03;;;;;;;11.25;10.45;;;8.50;99.90;;;;;;5081577;28;20217;-84
2020/12/16 04:41:29;;;;;;;27.05;11.80;;;8.40;99.90;;;;;;5080993;28;20221;-84
2020/12/16 04:43:58;;;;;;;12.27;11.15;;;8.40;99.90;;;;;;5081635;28;20221;-84
2020/12/16 04:46:29;;;;;;;11.38;10.48;;;8.20;99.90;;;;;;5080933;28;20221;-85
2020/12/16 04:48:56;;;;;;;14.75;12.50;;;8.10;99.90;;;;;;5081639;28;20205;-84
2020/12/16 04:51:24;;;;;;;31.30;15.13;;;8.00;99.90;;;;;;5081134;28;20198;-85
2020/12/16 04:53:54;;;;;;;16.73;12.65;;;8.00;99.90;;;;;;5081156;28;20216;-84
2020/12/16 04:56:22;;;;;;;18.50;12.00;;;7.90;99.90;;;;;;5080910;28;20574;-85
2020/12/16 04:58:49;;;;;;;20.65;12.02;;;7.90;99.90;;;;;;5080917;28;20272;-84
2020/12/16 05:01:15;;;;;;;13.10;11.85;;;7.90;99.90;;;;;;5081462;28;20221;-85
2020/12/16 05:03:41;;;;;;;15.07;13.55;;;7.80;99.90;;;;;;5081227;28;20541;-85
2020/12/16 05:09:55;;;;;;;14.43;13.13;;;7.80;99.90;;;;;;5079766;28;20690;-85
2020/12/16 05:13:08;;;;;;;12.35;11.18;;;7.80;99.90;;;;;;5066101;28;20220;-85
2020/12/16 05:16:13;;;;;;;12.80;11.65;;;7.80;99.90;;;;;;5037998;28;20738;-85
2020/12/16 05:19:34;;;;;;;;;;;;;;;;;;;;;
2020/12/16 05:33:54;;;;;;;14.55;12.77;;;7.60;99.90;;;;;;4808881;29;20279;-84
2020/12/16 05:36:54;;;;;;;;;;;;;;;;;;;;;
2020/12/16 05:39:33;;;;;;;12.95;11.68;;;7.60;99.90;;;;;;4841391;29;20287;-84
2020/12/16 05:54:23;;;;;;;12.25;10.38;;;7.60;99.90;;;;;;4841642;29;20227;-85
2020/12/16 06:19:03;;;;;;;;;;;;;;;;;;;;;
2020/12/16 06:22:33;;;;;;;14.02;12.52;;;7.60;99.90;;;;;;4936503;29;20234;-85
2020/12/16 06:25:19;;;;;;;15.48;12.80;;;7.60;99.90;;;;;;4943527;28;20205;-85
2020/12/16 06:42:58;;;;;;;11.20;10.13;;;7.60;99.90;;;;;;4890828;28;20587;-85
2020/12/16 06:45:55;;;;;;;11.43;10.32;;;7.60;99.90;;;;;;4997566;28;20204;-85
2020/12/16 06:51:50;;;;;;;11.25;9.95;;;7.50;99.90;;;;;;5041542;28;20186;-86
2020/12/16 06:54:44;;;;;;;12.43;11.13;;;7.60;99.90;;;;;;5059794;28;20206;-85
2020/12/16 06:57:30;;;;;;;11.18;10.10;;;7.60;99.90;;;;;;5058094;28;20229;-85
2020/12/16 07:00:02;;;;;;;12.77;10.93;;;7.50;99.90;;;;;;5058517;28;20244;-85
2020/12/16 07:02:48;;;;;;;11.68;10.52;;;7.50;99.90;;;;;;5059251;28;20305;-85
2020/12/16 07:06:07;;;;;;;13.55;12.15;;;7.50;99.90;;;;;;5056842;28;20244;-85
2020/12/16 07:09:09;;;;;;;12.40;9.93;;;7.50;99.90;;;;;;5059580;28;20205;-85
2020/12/16 07:14:57;;;;;;;12.93;10.57;;;7.60;99.90;;;;;;5057042;28;20335;-85
2020/12/16 07:17:25;;;;;;;13.30;11.30;;;7.60;99.90;;;;;;5059194;28;20327;-85
2020/12/16 07:22:21;;;;;;;12.13;11.13;;;7.60;99.90;;;;;;5141739;27;20568;-86
2020/12/16 07:24:49;;;;;;;13.77;9.15;;;7.60;99.90;;;;;;5141102;27;20236;-87
2020/12/16 07:27:20;;;;;;;12.57;10.70;;;7.60;99.90;;;;;;5140561;27;20288;-86
2020/12/16 07:29:56;;;;;;;13.30;11.95;;;7.60;99.90;;;;;;5141109;27;20180;-85
2020/12/16 07:32:23;;;;;;;12.00;11.00;;;7.50;99.90;;;;;;5140999;27;20259;-87
2020/12/16 07:34:52;;;;;;;11.93;10.82;;;7.60;99.90;;;;;;5141126;27;20199;-86
2020/12/16 07:37:21;;;;;;;11.07;9.18;;;7.60;99.90;;;;;;5139387;27;20288;-85
2020/12/16 07:39:50;;;;;;;11.88;10.68;;;7.60;99.90;;;;;;5121647;27;20219;-86
2020/12/16 07:42:21;;;;;;;11.60;10.60;;;7.60;99.90;;;;;;5129270;28;20256;-86
2020/12/16 07:44:48;;;;;;;11.18;9.73;;;7.70;99.90;;;;;;5136144;27;20214;-86
2020/12/16 07:47:16;;;;;;;11.00;9.98;;;7.70;99.90;;;;;;5123976;27;20219;-86
2020/12/16 07:49:43;;;;;;;13.88;10.65;;;7.70;99.90;;;;;;5118799;28;20215;-87
2020/12/16 07:52:10;;;;;;;11.30;10.10;;;7.70;99.90;;;;;;5121332;28;20200;-86
2020/12/16 07:54:37;;;;;;;11.93;10.75;;;7.70;99.90;;;;;;5122381;28;20207;-85
2020/12/16 07:57:04;;;;;;;11.98;10.02;;;7.70;99.90;;;;;;5122531;28;20260;-81
2020/12/16 07:59:32;;;;;;;10.43;9.40;;;7.70;99.90;;;;;;5116163;28;20659;-84
2020/12/16 08:02:09;;;;;;;14.13;9.63;;;7.70;99.90;;;;;;5116986;28;20717;-86
2020/12/16 08:04:37;;;;;;;11.30;10.20;;;7.70;99.90;;;;;;5119535;28;20189;-86
2020/12/16 08:07:15;;;;;;;11.90;9.32;;;7.70;99.90;;;;;;5119218;28;20532;-86
2020/12/16 08:09:57;;;;;;;9.80;9.00;;;7.70;99.90;;;;;;5119660;28;20192;-86
2020/12/16 08:12:24;;;;;;;11.73;10.05;;;7.80;99.90;;;;;;5119344;28;20208;-86
2020/12/16 08:15:03;;;;;;;9.52;8.73;;;7.80;99.90;;;;;;5119327;28;20212;-86
2020/12/16 08:17:29;;;;;;;10.48;9.40;;;7.80;99.90;;;;;;5116568;28;20281;-84
2020/12/16 08:20:08;;;;;;;11.07;9.18;;;7.80;99.90;;;;;;5116771;28;20569;-86
2020/12/16 08:22:36;;;;;;;9.88;8.75;;;7.90;99.90;;;;;;5116746;28;20251;-86
2020/12/16 08:25:08;;;;;;;9.68;8.13;;;7.90;99.90;;;;;;5117911;28;20662;-87
2020/12/16 08:27:35;;;;;;;7.85;7.15;;;8.00;99.90;;;;;;5118203;28;20228;-86
2020/12/16 08:30:03;;;;;;;9.10;8.40;;;8.10;99.90;;;;;;5118363;28;20204;-86
2020/12/16 08:32:32;;;;;;;10.35;9.38;;;8.10;99.90;;;;;;5112741;28;20209;-88
2020/12/16 08:35:03;;;;;;;10.10;9.05;;;8.10;99.90;;;;;;5111036;28;20209;-87
2020/12/16 08:37:31;;;;;;;11.55;8.98;;;8.10;99.90;;;;;;5108065;28;20717;-86
2020/12/16 08:40:03;;;;;;;10.02;9.02;;;8.20;99.90;;;;;;5104590;28;20270;-86
2020/12/16 08:42:30;;;;;;;11.90;10.82;;;8.30;99.90;;;;;;5109274;28;20180;-87
2020/12/16 08:45:07;;;;;;;11.98;9.40;;;8.40;99.90;;;;;;5118414;28;20200;-86
2020/12/16 08:47:35;;;;;;;10.60;9.55;;;8.40;99.90;;;;;;5118754;28;20208;-88
2020/12/16 08:50:04;;;;;;;9.60;8.70;;;8.60;99.90;;;;;;5112024;28;20292;-86
2020/12/16 08:52:38;;;;;;;9.40;8.60;;;8.60;99.90;;;;;;5104124;28;20204;-86
2020/12/16 08:55:15;;;;;;;9.05;8.35;;;8.70;99.90;;;;;;5103810;28;20205;-86
2020/12/16 08:57:56;;;;;;;11.30;10.20;;;8.70;99.90;;;;;;5103395;28;20247;-86
2020/12/16 09:00:27;;;;;;;9.00;8.07;;;8.80;99.90;;;;;;5103068;28;20213;-87
2020/12/16 09:03:12;;;;;;;12.05;11.07;;;9.50;99.90;;;;;;5103024;28;20200;-85
2020/12/16 09:05:42;;;;;;;9.45;8.55;;;8.70;99.90;;;;;;5103514;28;20204;-86
2020/12/16 09:08:11;;;;;;;11.82;8.70;;;8.70;99.90;;;;;;5103596;28;20316;-86
2020/12/16 09:10:40;;;;;;;17.08;10.02;;;9.10;99.90;;;;;;5103636;28;20196;-86
2020/12/16 09:13:36;;;;;;;11.60;7.80;;;8.80;99.90;;;;;;5104128;28;20212;-86
2020/12/16 09:16:23;;;;;;;11.88;10.60;;;8.80;99.90;;;;;;5100096;28;20211;-86
2020/12/16 09:18:56;;;;;;;12.38;8.90;;;8.80;99.90;;;;;;5105280;28;20208;-83
2020/12/16 09:21:40;;;;;;;16.13;8.65;;;8.80;99.90;;;;;;5104088;28;20224;-83
2020/12/16 09:24:29;;;;;;;10.75;8.82;;;8.80;99.90;;;;;;5104021;28;20291;-84
2020/12/16 09:27:01;;;;;;;9.93;7.85;;;8.90;99.90;;;;;;5103719;28;20239;-83
2020/12/16 09:29:29;;;;;;;9.52;8.63;;;8.90;99.90;;;;;;5103703;28;20276;-82
2020/12/16 09:32:09;;;;;;;7.95;7.25;;;9.00;99.90;;;;;;5103264;28;20198;-82
2020/12/16 09:34:38;;;;;;;7.80;7.00;;;9.10;99.90;;;;;;5102857;28;20210;-83
2020/12/16 09:37:15;;;;;;;7.90;7.20;;;9.20;99.90;;;;;;5103637;28;20857;-83
2020/12/16 09:39:41;;;;;;;8.00;6.65;;;9.20;99.90;;;;;;5103014;28;20223;-83
2020/12/16 09:42:10;;;;;;;6.65;6.10;;;9.30;99.90;;;;;;5106339;28;20226;-82
2020/12/16 09:44:36;;;;;;;6.35;5.75;;;9.30;99.90;;;;;;5110979;28;20200;-82
2020/12/16 09:47:17;;;;;;;6.25;5.72;;;9.40;99.90;;;;;;5110827;28;20231;-82
2020/12/16 09:49:45;;;;;;;8.05;7.25;;;9.40;99.90;;;;;;5112096;28;20208;-82
2020/12/16 09:52:25;;;;;;;7.55;6.60;;;9.40;99.90;;;;;;5111097;28;20193;-83
2020/12/16 09:54:51;;;;;;;7.55;6.85;;;9.40;99.90;;;;;;5110919;28;20231;-84
2020/12/16 09:57:20;;;;;;;8.23;7.53;;;9.40;99.90;;;;;;5108366;28;20225;-82
2020/12/16 09:59:46;;;;;;;8.48;7.72;;;9.50;99.90;;;;;;5111185;28;20208;-81
2020/12/16 10:02:15;;;;;;;9.40;8.48;;;9.50;99.90;;;;;;5109775;28;20224;-82
2020/12/16 10:04:41;;;;;;;9.20;8.30;;;9.60;99.90;;;;;;5110578;28;20206;-85
2020/12/16 10:07:08;;;;;;;13.93;10.40;;;9.70;99.90;;;;;;5105372;28;20563;-83
2020/12/16 10:09:35;;;;;;;10.50;9.23;;;9.70;99.90;;;;;;5100037;28;20624;-83
2020/12/16 10:12:02;;;;;;;10.80;9.80;;;9.80;99.90;;;;;;5100603;28;20443;-83
2020/12/16 10:14:28;;;;;;;10.45;9.35;;;9.90;99.90;;;;;;5100585;28;20983;-83
2020/12/16 10:16:55;;;;;;;10.45;9.35;;;10.00;99.90;;;;;;5100243;28;20225;-84
2020/12/16 10:19:22;;;;;;;9.88;8.95;;;10.10;99.90;;;;;;5100542;28;20212;-83
2020/12/16 10:21:50;;;;;;;10.07;9.20;;;10.20;99.90;;;;;;5099810;28;20234;-83
2020/12/16 10:24:52;;;;;;;10.37;9.37;;;10.30;99.90;;;;;;5100249;28;20688;-83
2020/12/16 10:27:40;;;;;;;9.60;8.60;;;10.50;99.90;;;;;;5098222;28;20475;-83
2020/12/16 10:30:18;;;;;;;10.57;9.53;;;10.60;99.90;;;;;;5099710;28;20232;-83
2020/12/16 10:33:13;;;;;;;;;;;;;;;;;;;;;
2020/12/16 10:41:58;;;;;;;10.53;9.03;;;12.30;99.90;;;;;;5084759;28;20547;-84
2020/12/16 10:44:25;;;;;;;8.00;7.20;;;13.10;99.90;;;;;;5100439;28;20446;-84
2020/12/16 10:46:54;;;;;;;13.20;7.13;;;13.70;99.90;;;;;;5099577;28;20524;-84
2020/12/16 10:49:20;;;;;;;11.03;7.23;;;14.20;99.90;;;;;;5099702;28;20446;-84
2020/12/16 10:51:48;;;;;;;8.10;7.27;;;14.80;99.90;;;;;;5099866;28;20450;-84
2020/12/16 10:54:14;;;;;;;9.03;8.17;;;15.30;99.90;;;;;;5100493;28;20946;-84
2020/12/16 10:56:41;;;;;;;9.20;7.60;;;15.70;99.90;;;;;;5100010;28;20966;-83
2020/12/16 10:59:10;;;;;;;8.07;7.27;;;15.90;99.90;;;;;;5100496;28;20446;-84
2020/12/16 11:01:40;;;;;;;7.00;6.40;;;16.00;99.90;;;;;;5099826;28;20536;-84
2020/12/16 11:04:07;;;;;;;7.80;6.23;;;16.30;99.90;;;;;;5100759;28;20436;-84
2020/12/16 11:06:34;;;;;;;6.77;6.23;;;16.70;99.90;;;;;;5100405;28;20487;-84
2020/12/16 11:09:01;;;;;;;8.13;7.37;;;16.90;98.90;;;;;;5099591;28;20463;-84
2020/12/16 11:11:34;;;;;;;7.57;6.30;;;17.50;99.00;;;;;;5099818;28;20540;-84
2020/12/16 11:14:02;;;;;;;6.67;6.07;;;18.30;97.40;;;;;;5101126;28;21010;-84
2020/12/16 11:16:31;;;;;;;6.07;5.67;;;19.00;95.50;;;;;;5100125;28;20987;-85
2020/12/16 11:18:58;;;;;;;7.37;6.40;;;19.90;95.30;;;;;;5100912;28;20442;-84
2020/12/16 11:21:24;;;;;;;6.83;6.23;;;20.70;93.30;;;;;;5100844;28;20460;-85
2020/12/16 11:23:50;;;;;;;6.70;6.10;;;21.50;92.00;;;;;;5101221;28;20503;-85
2020/12/16 11:26:17;;;;;;;6.70;6.10;;;22.20;90.30;;;;;;5101042;28;20475;-85
2020/12/16 11:28:43;;;;;;;7.03;6.43;;;22.70;86.80;;;;;;5100311;28;20458;-85
2020/12/16 11:31:09;;;;;;;7.00;6.30;;;23.40;87.00;;;;;;5100971;28;20482;-85
2020/12/16 11:33:35;;;;;;;6.20;5.70;;;24.20;82.80;;;;;;5101222;28;20457;-85
2020/12/16 11:36:08;;;;;;;7.37;6.77;;;24.70;78.50;;;;;;5101589;28;20434;-85
2020/12/16 11:38:34;;;;;;;7.27;6.67;;;25.30;78.20;;;;;;5101173;28;20438;-85
2020/12/16 11:41:00;;;;;;;6.00;5.67;;;26.00;75.00;;;;;;5102647;28;20450;-85
2020/12/16 11:43:49;;;;;;;7.07;6.47;;;26.30;69.70;;;;;;5100452;28;20447;-85
2020/12/16 11:46:20;;;;;;;7.43;6.73;;;26.30;67.50;;;;;;5101610;28;20470;-85
2020/12/16 11:49:10;;;;;;;6.90;6.30;;;26.30;67.10;;;;;;5101762;28;20458;-85
2020/12/16 11:54:41;;;;;;;6.90;6.40;;;26.10;65.00;;;;;;5101849;28;20466;-85
2020/12/16 11:57:56;;;;;;;;;;;;;;;;;;;;;
2020/12/16 12:04:06;;;;;;;7.20;6.60;;;25.40;66.60;;;;;;5029644;28;20465;-84
2020/12/16 12:10:06;;;;;;;;;;;;;;;;;;;;;
2020/12/16 12:22:14;;;;;;;8.23;7.63;;;28.20;60.20;;;;;;5100567;28;20454;-85
2020/12/16 13:25:49;;;;;;;10.07;9.27;;;26.80;53.40;;;;;;4863271;29;20460;-84
2020/12/16 15:04:33;;;;;;;;;;;;;;;;;;;;;
2020/12/16 18:36:21;;;;;;;15.30;13.77;;;8.00;99.90;;;;;;5082119;28;20229;-85
2020/12/16 18:38:51;;;;;;;17.33;15.70;;;8.00;99.90;;;;;;5084502;28;20209;-86
2020/12/16 18:41:17;;;;;;;15.13;13.82;;;7.90;99.90;;;;;;5083622;28;20228;-86
2020/12/16 18:43:44;;;;;;;17.95;16.17;;;7.90;99.90;;;;;;5084096;28;20197;-84
2020/12/16 18:46:11;;;;;;;17.25;15.38;;;7.90;99.90;;;;;;5082456;28;20287;-86
2020/12/16 18:48:37;;;;;;;17.58;15.90;;;7.80;99.90;;;;;;5083778;28;20240;-84
2020/12/16 18:51:04;;;;;;;18.52;16.75;;;7.80;99.90;;;;;;5082945;28;20193;-85
2020/12/16 18:53:32;;;;;;;18.02;16.38;;;7.80;99.90;;;;;;5084372;28;20213;-85
2020/12/16 18:55:59;;;;;;;18.85;14.85;;;7.70;99.90;;;;;;5083794;28;20205;-86
2020/12/16 18:58:27;;;;;;;16.70;14.95;;;7.70;99.90;;;;;;5083659;28;20209;-85
2020/12/16 19:00:53;;;;;;;15.98;14.32;;;7.70;99.90;;;;;;5083195;28;20212;-86
2020/12/16 19:03:20;;;;;;;17.52;15.80;;;7.60;99.90;;;;;;5082683;28;20204;-86
2020/12/16 19:05:46;;;;;;;18.73;13.70;;;7.60;99.90;;;;;;5083336;28;20208;-84
2020/12/16 19:08:17;;;;;;;16.10;14.70;;;7.60;99.90;;;;;;5082902;28;20240;-85
2020/12/16 19:10:44;;;;;;;16.92;15.43;;;7.50;99.90;;;;;;5082740;28;20205;-86
2020/12/16 19:13:10;;;;;;;19.75;15.73;;;7.50;99.90;;;;;;5084289;28;20225;-85
2020/12/16 19:15:36;;;;;;;16.40;14.65;;;7.50;99.90;;;;;;5084362;28;20212;-85
2020/12/16 19:18:03;;;;;;;17.73;15.95;;;7.40;99.90;;;;;;5084363;28;20247;-86
2020/12/16 19:20:30;;;;;;;16.92;14.75;;;7.40;99.90;;;;;;5084859;28;20240;-87
2020/12/16 19:22:58;;;;;;;15.85;14.27;;;7.40;99.90;;;;;;5083224;28;20268;-85
2020/12/16 19:28:52;;;;;;;15.32;13.85;;;7.30;99.90;;;;;;5032832;28;20209;-84
2020/12/16 19:31:19;;;;;;;16.80;14.98;;;7.30;99.90;;;;;;5082542;28;20312;-81
2020/12/16 19:33:50;;;;;;;15.50;14.02;;;7.20;99.90;;;;;;5082473;28;20216;-84
2020/12/16 19:36:41;;;;;;;17.63;15.45;;;7.20;99.90;;;;;;5082525;28;20622;-83
2020/12/16 19:39:08;;;;;;;17.40;15.95;;;7.20;99.90;;;;;;5083431;28;20189;-86
2020/12/16 19:41:37;;;;;;;17.27;15.68;;;7.10;99.90;;;;;;5080832;28;20205;-85
2020/12/16 19:44:04;;;;;;;16.98;14.88;;;7.10;99.90;;;;;;5079464;28;20220;-86
2020/12/16 19:46:35;;;;;;;18.48;15.40;;;7.10;99.90;;;;;;5080142;28;20236;-85
2020/12/16 20:09:05;;;;;;;;;;;;;;;;;;;;;
2020/12/16 20:12:32;;;;;;;;;;;;;;;;;;;;;
2020/12/16 20:15:15;;;;;;;24.02;17.88;;;6.80;99.90;;;;;;4976313;28;20220;-86
2020/12/16 20:17:42;;;;;;;19.50;17.42;;;6.80;99.90;;;;;;4986661;28;20219;-84
2020/12/16 20:20:22;;;;;;;20.35;16.50;;;6.80;99.90;;;;;;5053551;28;20208;-87
2020/12/16 20:23:00;;;;;;;20.17;16.13;;;6.80;99.90;;;;;;5068555;28;20707;-86
2020/12/16 20:25:28;;;;;;;20.02;18.00;;;6.80;99.90;;;;;;5068599;28;20277;-84
2020/12/16 20:27:55;;;;;;;21.00;18.95;;;6.80;99.90;;;;;;5067986;28;20218;-86
2020/12/16 20:30:45;;;;;;;21.48;18.38;;;6.80;99.90;;;;;;5069214;28;20220;-87
2020/12/16 20:55:51;;;;;;;24.58;19.63;;;6.60;99.90;;;;;;4932381;29;20593;-84
2020/12/16 20:59:03;;;;;;;;;;;;;;;;;;;;;
2020/12/16 21:05:36;;;;;;;;;;;;;;;;;;;;;
2020/12/16 21:24:46;;;;;;;;;;;;;;;;;;;;;
2020/12/16 21:33:34;;;;;;;29.73;21.90;;;6.30;99.90;;;;;;5012546;28;20691;-86
2020/12/16 21:36:01;;;;;;;31.05;23.38;;;6.30;99.90;;;;;;5072639;28;20209;-84
2020/12/16 21:38:27;;;;;;;27.67;22.67;;;6.30;99.90;;;;;;5070184;28;20208;-85
2020/12/16 21:40:53;;;;;;;28.98;23.10;;;6.30;99.90;;;;;;5069612;28;20204;-85
2020/12/16 21:43:22;;;;;;;32.47;25.55;;;6.30;99.90;;;;;;5078492;28;20224;-85
2020/12/16 21:45:49;;;;;;;29.88;22.70;;;6.20;99.90;;;;;;5073617;28;20224;-85
2020/12/16 21:48:16;;;;;;;29.65;24.75;;;6.30;99.90;;;;;;5072534;28;20224;-86
2020/12/16 21:50:43;;;;;;;31.98;22.65;;;6.30;99.90;;;;;;5072659;28;20202;-86
2020/12/16 21:53:12;;;;;;;26.65;23.08;;;6.30;99.90;;;;;;5075026;28;20235;-84
2020/12/16 21:55:38;;;;;;;29.10;25.15;;;6.20;99.90;;;;;;5069398;28;20204;-85
2020/12/16 21:58:13;;;;;;;23.50;21.02;;;6.20;99.90;;;;;;5068912;28;20220;-86
2020/12/16 22:00:42;;;;;;;28.27;25.20;;;6.30;99.90;;;;;;5070013;28;20198;-86
2020/12/16 22:03:14;;;;;;;28.23;22.98;;;6.30;99.90;;;;;;5069314;28;20265;-84
2020/12/16 22:05:47;;;;;;;33.00;24.27;;;6.30;99.90;;;;;;5078090;28;20250;-86
2020/12/16 22:08:49;;;;;;;;;;;;;;;;;;;;;
2020/12/16 22:14:59;;;;;;;45.40;28.08;;;6.40;99.90;;;;;;5060380;28;20203;-85
2020/12/16 22:18:05;;;;;;;43.60;26.27;;;6.40;99.90;;;;;;5056847;28;20313;-85
2020/12/16 22:21:10;;;;;;;36.58;25.17;;;6.50;99.90;;;;;;4998884;28;20644;-85
2020/12/16 22:24:07;;;;;;;51.10;26.60;;;6.40;99.90;;;;;;5053971;28;20202;-85
2020/12/16 22:26:54;;;;;;;;;;;;;;;;;;;;;
2020/12/16 22:29:22;;;;;;;41.72;20.60;;;6.40;99.90;;;;;;5059766;28;20285;-85
2020/12/16 22:31:48;;;;;;;29.00;21.85;;;6.40;99.90;;;;;;5060134;28;20238;-85
2020/12/16 22:34:14;;;;;;;44.53;23.10;;;6.40;99.90;;;;;;5060678;28;21866;-86
2020/12/16 22:36:42;;;;;;;33.08;22.48;;;6.30;99.90;;;;;;5060601;28;20222;-85
2020/12/16 22:39:10;;;;;;;28.65;22.35;;;6.30;99.90;;;;;;5060758;28;20299;-86
2020/12/16 22:41:40;;;;;;;31.77;21.08;;;6.30;99.90;;;;;;5061743;28;20575;-85
2020/12/16 22:44:06;;;;;;;39.13;22.60;;;6.30;99.90;;;;;;5063583;28;20209;-85
2020/12/16 22:46:34;;;;;;;47.65;24.50;;;6.30;99.90;;;;;;5063600;28;20249;-84
2020/12/16 22:49:04;;;;;;;57.75;25.42;;;6.30;99.90;;;;;;5063535;28;20213;-83
2020/12/16 22:51:35;;;;;;;34.28;22.10;;;6.30;99.90;;;;;;5061742;28;20214;-86
2020/12/16 22:54:02;;;;;;;27.98;22.50;;;6.30;99.90;;;;;;5060122;28;20193;-85
2020/12/16 22:56:28;;;;;;;27.73;19.85;;;6.30;99.90;;;;;;5059982;28;20594;-84
2020/12/16 22:58:55;;;;;;;23.90;19.23;;;6.30;99.90;;;;;;5060431;28;20210;-85
2020/12/16 23:01:30;;;;;;;31.35;20.33;;;6.30;99.90;;;;;;5059551;28;20205;-84
2020/12/16 23:03:56;;;;;;;21.27;18.10;;;6.30;99.90;;;;;;5060025;28;20214;-85
2020/12/16 23:06:24;;;;;;;19.70;17.02;;;6.30;99.90;;;;;;5060963;28;20754;-85
2020/12/16 23:08:52;;;;;;;21.02;18.63;;;6.30;99.90;;;;;;5060475;28;20277;-85
2020/12/16 23:11:21;;;;;;;21.58;18.45;;;6.30;99.90;;;;;;5060533;28;20785;-85
2020/12/16 23:13:47;;;;;;;18.08;16.40;;;6.30;99.90;;;;;;5059834;28;20575;-85
2020/12/16 23:16:13;;;;;;;19.05;16.67;;;6.30;99.90;;;;;;5059709;28;20230;-84